createdAt,value
2018-02-17T00:00:25.507Z,2.41
2018-02-17T00:01:25.495Z,2.40
2018-02-17T00:02:25.485Z,2.43
2018-02-17T00:03:25.473Z,2.45
2018-02-17T00:04:25.463Z,2.45
2018-02-17T00:05:25.452Z,2.59
2018-02-17T00:06:25.442Z,2.53
2018-02-17T00:07:25.435Z,2.62
2018-02-17T00:08:25.425Z,2.63
2018-02-17T00:09:25.418Z,2.62
2018-02-17T00:10:25.403Z,2.62
2018-02-17T00:11:25.392Z,2.61
2018-02-17T00:12:25.381Z,2.62
2018-02-17T00:13:25.371Z,2.58
2018-02-17T00:14:25.361Z,2.56
2018-02-17T00:15:25.344Z,2.51
2018-02-17T00:16:25.333Z,2.45
2018-02-17T00:17:25.323Z,2.51
2018-02-17T00:18:25.332Z,2.45
2018-02-17T00:19:25.308Z,2.43
2018-02-17T00:20:25.294Z,2.58
2018-02-17T00:21:25.284Z,2.59
2018-02-17T00:22:25.274Z,2.68
2018-02-17T00:23:25.257Z,2.50
2018-02-17T00:24:25.246Z,2.56
2018-02-17T00:25:25.236Z,2.55
2018-02-17T00:26:25.224Z,2.59
2018-02-17T00:27:25.213Z,2.63
2018-02-17T00:28:25.203Z,2.53
2018-02-17T00:29:25.194Z,2.56
2018-02-17T00:30:25.181Z,2.61
2018-02-17T00:31:25.174Z,2.69
2018-02-17T00:32:25.163Z,2.65
2018-02-17T00:33:25.152Z,2.63
2018-02-17T00:34:25.142Z,2.59
2018-02-17T00:35:25.130Z,2.65
2018-02-17T00:36:25.120Z,2.71
2018-02-17T00:37:25.110Z,2.71
2018-02-17T00:38:25.098Z,2.74
2018-02-17T00:39:25.082Z,2.69
2018-02-17T00:40:25.118Z,2.71
2018-02-17T00:41:25.060Z,2.68
2018-02-17T00:42:25.050Z,2.66
2018-02-17T00:43:25.039Z,2.74
2018-02-17T00:44:25.028Z,2.61
2018-02-17T00:45:25.017Z,2.59
2018-02-17T00:46:25.006Z,2.61
2018-02-17T00:47:24.998Z,2.61
2018-02-17T00:48:24.988Z,2.59
2018-02-17T00:49:24.978Z,2.61
2018-02-17T00:50:24.966Z,2.65
2018-02-17T00:51:24.956Z,2.62
2018-02-17T00:52:24.943Z,2.56
2018-02-17T00:53:24.934Z,2.56
2018-02-17T00:54:24.922Z,2.55
2018-02-17T00:55:24.905Z,2.56
2018-02-17T00:56:24.895Z,2.68
2018-02-17T00:57:24.884Z,2.55
2018-02-17T00:58:24.873Z,2.55
2018-02-17T00:59:24.861Z,2.55
2018-02-17T01:00:24.850Z,2.61
2018-02-17T01:01:24.838Z,2.58
2018-02-17T01:02:24.828Z,2.56
2018-02-17T01:03:24.820Z,2.62
2018-02-17T01:04:24.809Z,2.63
2018-02-17T01:05:24.798Z,2.65
2018-02-17T01:06:24.788Z,2.68
2018-02-17T01:07:24.776Z,2.73
2018-02-17T01:08:24.768Z,2.74
2018-02-17T01:09:24.754Z,2.68
2018-02-17T01:10:24.742Z,2.68
2018-02-17T01:11:24.727Z,2.68
2018-02-17T01:12:24.715Z,2.65
2018-02-17T01:13:24.705Z,2.66
2018-02-17T01:14:24.694Z,2.73
2018-02-17T01:15:24.682Z,2.77
2018-02-17T01:16:24.670Z,2.71
2018-02-17T01:17:24.660Z,2.80
2018-02-17T01:18:24.649Z,2.74
2018-02-17T01:19:24.641Z,2.76
2018-02-17T01:20:24.630Z,2.69
2018-02-17T01:21:24.619Z,2.69
2018-02-17T01:22:24.607Z,2.68
2018-02-17T01:23:24.591Z,2.66
2018-02-17T01:24:24.580Z,2.68
2018-02-17T01:25:24.569Z,2.65
2018-02-17T01:26:24.558Z,2.68
2018-02-17T01:27:24.550Z,2.61
2018-02-17T01:28:24.539Z,2.59
2018-02-17T01:29:24.528Z,2.68
2018-02-17T01:30:24.516Z,2.62
2018-02-17T01:31:24.504Z,2.74
2018-02-17T01:32:24.497Z,2.73
2018-02-17T01:33:24.482Z,2.76
2018-02-17T01:34:24.471Z,2.86
2018-02-17T01:35:24.455Z,2.84
2018-02-17T01:36:24.443Z,2.87
2018-02-17T01:37:24.433Z,2.90
2018-02-17T01:38:24.421Z,3.02
2018-02-17T01:39:24.410Z,3.02
2018-02-17T01:40:24.397Z,2.98
2018-02-17T01:41:24.386Z,2.98
2018-02-17T01:42:24.375Z,3.12
2018-02-17T01:43:24.369Z,2.97
2018-02-17T01:44:24.356Z,2.97
2018-02-17T01:45:24.344Z,2.99
2018-02-17T01:46:24.333Z,2.99
2018-02-17T01:47:24.321Z,3.07
2018-02-17T01:48:24.309Z,3.05
2018-02-17T01:49:24.298Z,3.02
2018-02-17T01:50:24.287Z,2.99
2018-02-17T01:51:24.271Z,3.08
2018-02-17T01:52:24.258Z,3.16
2018-02-17T01:53:24.248Z,3.15
2018-02-17T01:54:24.237Z,3.19
2018-02-17T01:55:24.224Z,3.16
2018-02-17T01:56:24.212Z,3.20
2018-02-17T01:57:24.202Z,3.20
2018-02-17T01:58:24.190Z,3.23
2018-02-17T01:59:24.182Z,3.23
2018-02-17T02:00:24.171Z,3.34
2018-02-17T02:01:24.160Z,3.33
2018-02-17T02:02:24.149Z,3.41
2018-02-17T02:03:24.135Z,3.30
2018-02-17T02:04:24.126Z,3.23
2018-02-17T02:05:24.114Z,3.25
2018-02-17T02:06:24.102Z,3.25
2018-02-17T02:07:24.086Z,3.28
2018-02-17T02:08:24.075Z,3.31
2018-02-17T02:09:24.067Z,3.33
2018-02-17T02:10:24.053Z,3.33
2018-02-17T02:11:24.040Z,3.37
2018-02-17T02:12:24.029Z,3.34
2018-02-17T02:13:24.019Z,3.37
2018-02-17T02:14:24.007Z,3.41
2018-02-17T02:15:23.999Z,3.35
2018-02-17T02:16:23.988Z,3.35
2018-02-17T02:17:23.976Z,3.33
2018-02-17T02:18:23.965Z,3.35
2018-02-17T02:19:23.953Z,3.30
2018-02-17T02:20:23.944Z,3.34
2018-02-17T02:21:23.931Z,3.45
2018-02-17T02:22:23.920Z,3.34
2018-02-17T02:23:23.903Z,3.31
2018-02-17T02:24:23.895Z,3.30
2018-02-17T02:25:23.880Z,3.34
2018-02-17T02:26:23.869Z,3.41
2018-02-17T02:27:23.861Z,3.42
2018-02-17T02:28:23.851Z,3.46
2018-02-17T02:29:23.839Z,3.52
2018-02-17T02:30:23.829Z,3.44
2018-02-17T02:31:23.812Z,3.45
2018-02-17T02:32:23.801Z,3.50
2018-02-17T02:33:23.790Z,3.46
2018-02-17T02:34:23.780Z,3.42
2018-02-17T02:35:23.766Z,3.44
2018-02-17T02:36:23.755Z,3.39
2018-02-17T02:37:23.744Z,3.42
2018-02-17T02:38:23.732Z,3.31
2018-02-17T02:39:23.724Z,3.28
2018-02-17T02:40:23.713Z,3.35
2018-02-17T02:41:23.704Z,3.33
2018-02-17T02:42:23.691Z,3.31
2018-02-17T02:43:23.679Z,3.20
2018-02-17T02:44:23.668Z,3.23
2018-02-17T02:45:23.656Z,3.23
2018-02-17T02:46:23.645Z,3.13
2018-02-17T02:47:23.629Z,3.23
2018-02-17T02:48:23.624Z,3.23
2018-02-17T02:49:23.620Z,3.25
2018-02-17T02:50:23.594Z,3.20
2018-02-17T02:51:23.582Z,3.13
2018-02-17T02:52:23.570Z,3.10
2018-02-17T02:53:23.560Z,3.08
2018-02-17T02:54:23.548Z,3.10
2018-02-17T02:55:23.541Z,2.99
2018-02-17T02:56:23.528Z,3.04
2018-02-17T02:57:23.517Z,3.12
2018-02-17T02:58:23.507Z,3.10
2018-02-17T02:59:23.495Z,3.05
2018-02-17T03:00:23.483Z,3.02
2018-02-17T03:01:23.472Z,3.04
2018-02-17T03:02:23.462Z,3.02
2018-02-17T03:03:23.445Z,2.99
2018-02-17T03:04:23.442Z,3.02
2018-02-17T03:05:23.422Z,3.08
2018-02-17T03:06:23.411Z,3.10
2018-02-17T03:07:23.398Z,2.99
2018-02-17T03:08:23.387Z,2.89
2018-02-17T03:09:23.376Z,2.86
2018-02-17T03:10:23.363Z,2.86
2018-02-17T03:11:23.356Z,2.87
2018-02-17T03:12:23.344Z,2.81
2018-02-17T03:13:23.334Z,2.68
2018-02-17T03:14:23.322Z,2.69
2018-02-17T03:15:23.310Z,2.73
2018-02-17T03:16:23.299Z,2.73
2018-02-17T03:17:23.287Z,2.77
2018-02-17T03:18:23.280Z,2.80
2018-02-17T03:19:23.259Z,2.87
2018-02-17T03:20:23.248Z,2.98
2018-02-17T03:21:23.236Z,3.07
2018-02-17T03:22:23.225Z,2.99
2018-02-17T03:23:23.214Z,2.99
2018-02-17T03:24:23.202Z,3.02
2018-02-17T03:25:23.191Z,3.05
2018-02-17T03:26:23.180Z,3.05
2018-02-17T03:27:23.176Z,3.01
2018-02-17T03:28:23.161Z,2.99
2018-02-17T03:29:23.150Z,3.04
2018-02-17T03:30:23.140Z,3.02
2018-02-17T03:31:23.124Z,3.04
2018-02-17T03:32:23.111Z,3.01
2018-02-17T03:33:23.100Z,3.04
2018-02-17T03:34:23.089Z,3.05
2018-02-17T03:35:23.082Z,3.05
2018-02-17T03:36:23.070Z,3.05
2018-02-17T03:37:23.059Z,3.08
2018-02-17T03:38:23.048Z,2.98
2018-02-17T03:39:23.036Z,2.87
2018-02-17T03:40:23.024Z,2.95
2018-02-17T03:41:23.012Z,3.01
2018-02-17T03:42:23.004Z,2.89
2018-02-17T03:43:22.986Z,2.89
2018-02-17T03:44:22.975Z,2.87
2018-02-17T03:45:22.963Z,2.86
2018-02-17T03:46:22.953Z,2.87
2018-02-17T03:47:22.940Z,2.77
2018-02-17T03:48:22.928Z,2.76
2018-02-17T03:49:22.918Z,2.73
2018-02-17T03:50:22.906Z,2.69
2018-02-17T03:51:22.898Z,2.80
2018-02-17T03:52:22.887Z,2.77
2018-02-17T03:53:22.877Z,2.71
2018-02-17T03:54:22.864Z,2.77
2018-02-17T03:55:22.852Z,2.62
2018-02-17T03:56:22.842Z,2.59
2018-02-17T03:57:22.830Z,2.61
2018-02-17T03:58:22.819Z,2.58
2018-02-17T03:59:22.802Z,2.44
2018-02-17T04:00:22.791Z,2.41
2018-02-17T04:01:22.780Z,2.40
2018-02-17T04:02:22.768Z,2.36
2018-02-17T04:03:22.756Z,2.47
2018-02-17T04:04:22.743Z,2.33
2018-02-17T04:05:22.734Z,2.37
2018-02-17T04:06:22.722Z,2.29
2018-02-17T04:07:22.716Z,2.27
2018-02-17T04:08:22.707Z,2.26
2018-02-17T04:09:22.692Z,2.22
2018-02-17T04:10:22.681Z,2.25
2018-02-17T04:11:22.668Z,2.18
2018-02-17T04:12:22.657Z,2.18
2018-02-17T04:13:22.646Z,2.12
2018-02-17T04:14:22.635Z,2.18
2018-02-17T04:15:22.618Z,2.15
2018-02-17T04:16:22.607Z,2.12
2018-02-17T04:17:22.596Z,2.07
2018-02-17T04:18:22.585Z,2.12
2018-02-17T04:19:22.574Z,2.02
2018-02-17T04:20:22.561Z,1.98
2018-02-17T04:21:22.554Z,2.00
2018-02-17T04:22:22.539Z,2.02
2018-02-17T04:23:22.530Z,2.01
2018-02-17T04:24:22.523Z,2.07
2018-02-17T04:25:22.506Z,1.93
2018-02-17T04:26:22.496Z,1.98
2018-02-17T04:27:22.484Z,1.93
2018-02-17T04:28:22.500Z,2.01
2018-02-17T04:29:22.460Z,1.89
2018-02-17T04:30:22.450Z,1.88
2018-02-17T04:31:22.434Z,1.92
2018-02-17T04:32:22.423Z,1.88
2018-02-17T04:33:22.411Z,1.90
2018-02-17T04:34:22.400Z,1.89
2018-02-17T04:35:22.392Z,1.83
2018-02-17T04:36:22.381Z,1.88
2018-02-17T04:37:22.369Z,1.88
2018-02-17T04:38:22.358Z,1.89
2018-02-17T04:39:22.342Z,1.93
2018-02-17T04:40:22.331Z,1.88
2018-02-17T04:41:22.320Z,1.88
2018-02-17T04:42:22.308Z,1.89
2018-02-17T04:43:22.296Z,1.89
2018-02-17T04:44:22.285Z,1.95
2018-02-17T04:45:22.273Z,1.92
2018-02-17T04:46:22.262Z,1.92
2018-02-17T04:47:22.254Z,1.92
2018-02-17T04:48:22.243Z,2.04
2018-02-17T04:49:22.231Z,2.09
2018-02-17T04:50:22.223Z,2.27
2018-02-17T04:51:22.208Z,2.30
2018-02-17T04:52:22.196Z,2.40
2018-02-17T04:53:22.185Z,2.44
2018-02-17T04:54:22.174Z,2.68
2018-02-17T04:55:22.157Z,2.69
2018-02-17T04:56:22.146Z,2.66
2018-02-17T04:57:22.134Z,2.68
2018-02-17T04:58:22.122Z,2.84
2018-02-17T04:59:22.113Z,2.79
2018-02-17T05:00:22.102Z,2.84
2018-02-17T05:01:22.087Z,2.83
2018-02-17T05:02:22.076Z,2.84
2018-02-17T05:03:22.068Z,2.77
2018-02-17T05:04:22.057Z,2.84
2018-02-17T05:05:22.045Z,2.81
2018-02-17T05:06:22.034Z,2.83
2018-02-17T05:07:22.021Z,2.81
2018-02-17T05:08:22.009Z,2.76
2018-02-17T05:09:21.998Z,2.83
2018-02-17T05:10:21.986Z,2.73
2018-02-17T05:11:21.975Z,2.77
2018-02-17T05:12:21.960Z,2.77
2018-02-17T05:13:21.947Z,2.80
2018-02-17T05:14:21.935Z,2.98
2018-02-17T05:15:21.928Z,2.95
2018-02-17T05:16:21.912Z,3.04
2018-02-17T05:17:21.901Z,3.05
2018-02-17T05:18:21.890Z,3.19
2018-02-17T05:19:21.881Z,3.26
2018-02-17T05:20:21.870Z,3.19
2018-02-17T05:21:21.857Z,3.20
2018-02-17T05:22:21.847Z,3.26
2018-02-17T05:23:21.835Z,3.25
2018-02-17T05:24:21.824Z,3.23
2018-02-17T05:25:21.812Z,3.16
2018-02-17T05:26:21.800Z,3.12
2018-02-17T05:27:21.787Z,3.17
2018-02-17T05:28:21.773Z,3.19
2018-02-17T05:29:21.764Z,3.22
2018-02-17T05:30:21.751Z,3.16
2018-02-17T05:31:21.738Z,3.16
2018-02-17T05:32:21.726Z,3.17
2018-02-17T05:33:21.715Z,3.19
2018-02-17T05:34:21.704Z,3.19
2018-02-17T05:35:21.695Z,3.30
2018-02-17T05:36:21.684Z,3.30
2018-02-17T05:37:21.672Z,3.23
2018-02-17T05:38:21.662Z,3.37
2018-02-17T05:39:21.646Z,3.37
2018-02-17T05:40:21.634Z,3.37
2018-02-17T05:41:21.622Z,3.34
2018-02-17T05:42:21.611Z,3.30
2018-02-17T05:43:21.603Z,3.34
2018-02-17T05:44:21.592Z,3.33
2018-02-17T05:45:21.582Z,3.30
2018-02-17T05:46:21.570Z,3.45
2018-02-17T05:47:21.556Z,3.41
2018-02-17T05:48:21.545Z,3.39
2018-02-17T05:49:21.534Z,3.42
2018-02-17T05:50:21.523Z,3.49
2018-02-17T05:51:21.507Z,3.39
2018-02-17T05:52:21.501Z,3.42
2018-02-17T05:53:21.485Z,3.42
2018-02-17T05:54:21.473Z,3.37
2018-02-17T05:55:21.462Z,3.50
2018-02-17T05:56:21.450Z,3.49
2018-02-17T05:57:21.439Z,3.45
2018-02-17T05:58:21.428Z,3.54
2018-02-17T05:59:21.419Z,3.46
2018-02-17T06:00:21.408Z,3.53
2018-02-17T06:01:21.397Z,3.41
2018-02-17T06:02:21.387Z,3.49
2018-02-17T06:03:21.375Z,3.44
2018-02-17T06:04:21.363Z,3.41
2018-02-17T06:05:21.353Z,3.35
2018-02-17T06:06:21.341Z,3.33
2018-02-17T06:07:21.325Z,3.34
2018-02-17T06:08:21.315Z,3.34
2018-02-17T06:09:21.303Z,3.17
2018-02-17T06:10:21.292Z,3.20
2018-02-17T06:11:21.282Z,3.19
2018-02-17T06:12:21.269Z,3.13
2018-02-17T06:13:21.258Z,3.08
2018-02-17T06:14:21.247Z,3.01
2018-02-17T06:15:21.240Z,2.99
2018-02-17T06:16:21.229Z,2.97
2018-02-17T06:17:21.217Z,3.05
2018-02-17T06:18:21.206Z,3.05
2018-02-17T06:19:21.194Z,3.01
2018-02-17T06:20:21.184Z,3.10
2018-02-17T06:21:21.172Z,3.12
2018-02-17T06:22:21.160Z,3.13
2018-02-17T06:23:21.146Z,3.15
2018-02-17T06:24:21.135Z,3.07
2018-02-17T06:25:21.123Z,3.17
2018-02-17T06:26:21.113Z,3.15
2018-02-17T06:27:21.100Z,3.34
2018-02-17T06:28:21.089Z,3.31
2018-02-17T06:29:21.078Z,3.46
2018-02-17T06:30:21.070Z,3.49
2018-02-17T06:31:21.061Z,3.56
2018-02-17T06:32:21.048Z,3.56
2018-02-17T06:33:21.037Z,3.52
2018-02-17T06:34:21.025Z,3.52
2018-02-17T06:35:21.014Z,3.49
2018-02-17T06:36:21.003Z,3.44
2018-02-17T06:37:20.991Z,3.50
2018-02-17T06:38:20.980Z,3.53
2018-02-17T06:39:20.965Z,3.52
2018-02-17T06:40:20.953Z,3.50
2018-02-17T06:41:20.983Z,3.52
2018-02-17T06:42:20.931Z,3.45
2018-02-17T06:43:20.923Z,3.49
2018-02-17T06:44:20.911Z,3.49
2018-02-17T06:45:20.900Z,3.50
2018-02-17T06:46:20.890Z,3.52
2018-02-17T06:47:20.873Z,3.42
2018-02-17T06:48:20.862Z,3.46
2018-02-17T06:49:20.852Z,3.52
2018-02-17T06:50:20.841Z,3.54
2018-02-17T06:51:20.828Z,3.53
2018-02-17T06:52:20.819Z,3.53
2018-02-17T06:53:20.807Z,3.56
2018-02-17T06:54:20.796Z,3.56
2018-02-17T06:55:20.787Z,3.57
2018-02-17T06:56:20.777Z,3.57
2018-02-17T06:57:20.765Z,3.53
2018-02-17T06:58:20.755Z,3.52
2018-02-17T06:59:20.743Z,3.60
2018-02-17T07:00:20.732Z,3.68
2018-02-17T07:01:20.720Z,3.56
2018-02-17T07:02:20.710Z,3.52
2018-02-17T07:03:20.693Z,3.56
2018-02-17T07:04:20.683Z,3.53
2018-02-17T07:05:20.671Z,3.59
2018-02-17T07:06:20.664Z,3.56
2018-02-17T07:07:20.652Z,3.53
2018-02-17T07:08:20.638Z,3.54
2018-02-17T07:09:20.628Z,3.57
2018-02-17T07:10:20.616Z,3.56
2018-02-17T07:11:20.609Z,3.53
2018-02-17T07:12:20.598Z,3.52
2018-02-17T07:13:20.587Z,3.53
2018-02-17T07:14:20.577Z,3.39
2018-02-17T07:15:20.563Z,3.42
2018-02-17T07:16:20.554Z,3.44
2018-02-17T07:17:20.543Z,3.31
2018-02-17T07:18:20.535Z,3.35
2018-02-17T07:19:20.517Z,3.41
2018-02-17T07:20:20.506Z,3.31
2018-02-17T07:21:20.495Z,3.35
2018-02-17T07:22:20.485Z,3.34
2018-02-17T07:23:20.472Z,3.25
2018-02-17T07:24:20.461Z,3.26
2018-02-17T07:25:20.452Z,3.23
2018-02-17T07:26:20.441Z,3.26
2018-02-17T07:27:20.462Z,3.19
2018-02-17T07:28:20.423Z,3.19
2018-02-17T07:29:20.412Z,3.16
2018-02-17T07:30:20.401Z,3.25
2018-02-17T07:31:20.390Z,3.13
2018-02-17T07:32:20.379Z,3.16
2018-02-17T07:33:20.368Z,3.13
2018-02-17T07:34:20.357Z,3.16
2018-02-17T07:35:20.342Z,3.23
2018-02-17T07:36:20.331Z,3.15
2018-02-17T07:37:20.321Z,3.31
2018-02-17T07:38:20.310Z,3.23
2018-02-17T07:39:20.298Z,3.25
2018-02-17T07:40:20.318Z,3.34
2018-02-17T07:41:20.277Z,3.25
2018-02-17T07:42:20.267Z,3.41
2018-02-17T07:43:20.260Z,3.37
2018-02-17T07:44:20.249Z,3.49
2018-02-17T07:45:20.239Z,3.49
2018-02-17T07:46:20.228Z,3.54
2018-02-17T07:47:20.216Z,3.54
2018-02-17T07:48:20.206Z,3.53
2018-02-17T07:49:20.196Z,3.57
2018-02-17T07:50:20.185Z,3.56
2018-02-17T07:51:20.170Z,3.54
2018-02-17T07:52:20.159Z,3.60
2018-02-17T07:53:20.149Z,3.71
2018-02-17T07:54:20.141Z,3.64
2018-02-17T07:55:20.130Z,3.67
2018-02-17T07:56:20.117Z,3.71
2018-02-17T07:57:20.107Z,3.64
2018-02-17T07:58:20.097Z,3.71
2018-02-17T07:59:20.089Z,3.64
2018-02-17T08:00:20.079Z,3.74
2018-02-17T08:01:20.068Z,3.71
2018-02-17T08:02:20.058Z,3.77
2018-02-17T08:03:20.047Z,3.64
2018-02-17T08:04:20.036Z,3.74
2018-02-17T08:05:20.027Z,3.77
2018-02-17T08:06:20.017Z,3.71
2018-02-17T08:07:20.001Z,3.72
2018-02-17T08:08:19.992Z,3.67
2018-02-17T08:09:19.981Z,3.77
2018-02-17T08:10:19.973Z,3.72
2018-02-17T08:11:19.960Z,3.75
2018-02-17T08:12:19.949Z,3.81
2018-02-17T08:13:19.940Z,3.78
2018-02-17T08:14:19.933Z,3.84
2018-02-17T08:15:19.923Z,3.75
2018-02-17T08:16:19.915Z,3.84
2018-02-17T08:17:19.902Z,3.82
2018-02-17T08:18:19.892Z,3.89
2018-02-17T08:19:19.884Z,3.84
2018-02-17T08:20:19.870Z,4.04
2018-02-17T08:21:19.865Z,4.08
2018-02-17T08:22:19.851Z,4.14
2018-02-17T08:23:19.835Z,4.14
2018-02-17T08:24:19.825Z,4.20
2018-02-17T08:25:19.816Z,4.14
2018-02-17T08:26:19.806Z,4.26
2018-02-17T08:27:19.795Z,4.29
2018-02-17T08:28:19.785Z,4.25
2018-02-17T08:29:19.775Z,4.29
2018-02-17T08:30:19.765Z,4.43
2018-02-17T08:31:19.759Z,4.39
2018-02-17T08:32:19.749Z,4.38
2018-02-17T08:33:19.740Z,4.56
2018-02-17T08:34:19.729Z,4.51
2018-02-17T08:35:19.718Z,4.51
2018-02-17T08:36:19.708Z,4.67
2018-02-17T08:37:19.699Z,4.69
2018-02-17T08:38:19.688Z,4.77
2018-02-17T08:39:19.674Z,4.74
2018-02-17T08:40:19.664Z,4.79
2018-02-17T08:41:19.658Z,4.88
2018-02-17T08:42:19.645Z,4.87
2018-02-17T08:43:19.634Z,4.96
2018-02-17T08:44:19.625Z,4.96
2018-02-17T08:45:19.615Z,5.02
2018-02-17T08:46:19.609Z,5.09
2018-02-17T08:47:19.600Z,5.17
2018-02-17T08:48:19.591Z,5.20
2018-02-17T08:49:19.581Z,5.24
2018-02-17T08:50:19.572Z,5.24
2018-02-17T08:51:19.558Z,5.24
2018-02-17T08:52:19.548Z,5.24
2018-02-17T08:53:19.542Z,5.40
2018-02-17T08:54:19.533Z,5.47
2018-02-17T08:55:19.524Z,5.47
2018-02-17T08:56:19.515Z,5.55
2018-02-17T08:57:19.507Z,5.58
2018-02-17T08:58:19.498Z,5.65
2018-02-17T08:59:19.488Z,5.59
2018-02-17T09:00:19.479Z,5.69
2018-02-17T09:01:19.470Z,5.80
2018-02-17T09:02:19.461Z,5.87
2018-02-17T09:03:19.447Z,5.92
2018-02-17T09:04:19.439Z,5.90
2018-02-17T09:05:19.430Z,6.05
2018-02-17T09:06:19.422Z,6.14
2018-02-17T09:07:19.413Z,6.11
2018-02-17T09:08:19.404Z,6.28
2018-02-17T09:09:19.396Z,6.28
2018-02-17T09:10:19.390Z,6.28
2018-02-17T09:11:19.384Z,6.28
2018-02-17T09:12:19.374Z,6.36
2018-02-17T09:13:19.366Z,6.45
2018-02-17T09:14:19.362Z,6.46
2018-02-17T09:15:19.350Z,6.55
2018-02-17T09:16:19.341Z,6.45
2018-02-17T09:17:19.332Z,6.48
2018-02-17T09:18:19.325Z,6.53
2018-02-17T09:19:19.312Z,6.53
2018-02-17T09:20:19.323Z,6.46
2018-02-17T09:21:19.296Z,6.53
2018-02-17T09:22:19.288Z,6.46
2018-02-17T09:23:19.279Z,6.50
2018-02-17T09:24:19.270Z,6.53
2018-02-17T09:25:19.263Z,6.54
2018-02-17T09:26:19.256Z,6.58
2018-02-17T09:27:19.251Z,6.57
2018-02-17T09:28:19.243Z,6.78
2018-02-17T09:29:19.235Z,6.72
2018-02-17T09:30:19.227Z,6.91
2018-02-17T09:31:19.218Z,6.91
2018-02-17T09:32:19.210Z,7.14
2018-02-17T09:33:19.202Z,7.27
2018-02-17T09:34:19.195Z,7.44
2018-02-17T09:35:19.182Z,7.51
2018-02-17T09:36:19.175Z,7.66
2018-02-17T09:37:19.166Z,7.70
2018-02-17T09:38:19.160Z,7.73
2018-02-17T09:39:19.150Z,7.48
2018-02-17T09:40:19.144Z,7.60
2018-02-17T09:41:19.137Z,7.71
2018-02-17T09:42:19.130Z,7.60
2018-02-17T09:43:19.126Z,7.69
2018-02-17T09:44:19.119Z,7.81
2018-02-17T09:45:19.114Z,7.96
2018-02-17T09:46:19.105Z,7.92
2018-02-17T09:47:19.097Z,7.86
2018-02-17T09:48:19.091Z,8.12
2018-02-17T09:49:19.084Z,8.27
2018-02-17T09:50:19.079Z,8.39
2018-02-17T09:51:19.066Z,8.47
2018-02-17T09:52:19.059Z,8.37
2018-02-17T09:53:19.054Z,8.12
2018-02-17T09:54:19.047Z,8.12
2018-02-17T09:55:19.045Z,7.99
2018-02-17T09:56:19.038Z,7.85
2018-02-17T09:57:19.032Z,7.74
2018-02-17T09:58:19.026Z,7.82
2018-02-17T09:59:19.014Z,7.71
2018-02-17T10:00:19.008Z,7.77
2018-02-17T10:01:19.002Z,7.96
2018-02-17T10:02:19.008Z,8.07
2018-02-17T10:03:18.990Z,8.00
2018-02-17T10:04:18.984Z,8.20
2018-02-17T10:05:18.979Z,8.27
2018-02-17T10:06:18.972Z,8.32
2018-02-17T10:07:18.971Z,8.18
2018-02-17T10:08:18.965Z,8.17
2018-02-17T10:09:18.959Z,8.36
2018-02-17T10:10:18.963Z,8.52
2018-02-17T10:11:18.983Z,8.71
2018-02-17T10:12:18.942Z,8.85
2018-02-17T10:13:18.937Z,9.04
2018-02-17T10:14:18.931Z,9.06
2018-02-17T10:15:18.924Z,9.27
2018-02-17T10:16:18.918Z,9.17
2018-02-17T10:17:18.914Z,9.32
2018-02-17T10:18:18.906Z,9.00
2018-02-17T10:19:18.899Z,8.85
2018-02-17T10:20:18.895Z,9.04
2018-02-17T10:21:18.893Z,9.17
2018-02-17T10:22:18.885Z,9.23
2018-02-17T10:23:18.883Z,9.31
2018-02-17T10:24:18.878Z,9.15
2018-02-17T10:25:18.874Z,9.38
2018-02-17T10:26:18.869Z,9.53
2018-02-17T10:27:18.863Z,9.55
2018-02-17T10:28:18.858Z,9.75
2018-02-17T10:29:18.854Z,9.81
2018-02-17T10:30:18.850Z,9.67
2018-02-17T10:31:18.837Z,9.42
2018-02-17T10:32:18.835Z,9.67
2018-02-17T10:33:18.829Z,9.26
2018-02-17T10:34:18.825Z,9.53
2018-02-17T10:35:18.819Z,9.44
2018-02-17T10:36:18.814Z,9.40
2018-02-17T10:37:18.810Z,9.27
2018-02-17T10:38:18.806Z,9.12
2018-02-17T10:39:18.808Z,9.01
2018-02-17T10:40:18.800Z,9.15
2018-02-17T10:41:18.796Z,9.41
2018-02-17T10:42:18.791Z,9.56
2018-02-17T10:43:18.791Z,9.62
2018-02-17T10:44:18.781Z,9.45
2018-02-17T10:45:18.777Z,9.40
2018-02-17T10:46:18.772Z,9.41
2018-02-17T10:47:18.762Z,8.94
2018-02-17T10:48:18.757Z,8.68
2018-02-17T10:49:18.753Z,8.58
2018-02-17T10:50:18.749Z,8.52
2018-02-17T10:51:18.743Z,8.40
2018-02-17T10:52:18.738Z,8.45
2018-02-17T10:53:18.734Z,8.57
2018-02-17T10:54:18.729Z,8.58
2018-02-17T10:55:18.727Z,8.71
2018-02-17T10:56:18.727Z,9.08
2018-02-17T10:57:18.718Z,9.50
2018-02-17T10:58:18.713Z,10.10
2018-02-17T10:59:18.707Z,10.91
2018-02-17T11:00:18.698Z,11.28
2018-02-17T11:01:18.693Z,11.77
2018-02-17T11:02:18.688Z,12.23
2018-02-17T11:03:18.688Z,13.03
2018-02-17T11:04:18.683Z,13.73
2018-02-17T11:05:18.680Z,14.09
2018-02-17T11:06:18.693Z,13.14
2018-02-17T11:07:18.674Z,12.88
2018-02-17T11:08:18.673Z,12.71
2018-02-17T11:09:18.667Z,12.25
2018-02-17T11:10:18.664Z,11.90
2018-02-17T11:11:18.658Z,11.81
2018-02-17T11:12:18.714Z,11.78
2018-02-17T11:13:18.654Z,11.56
2018-02-17T11:14:18.653Z,11.97
2018-02-17T11:15:18.650Z,12.23
2018-02-17T11:16:18.648Z,12.25
2018-02-17T11:17:18.647Z,12.12
2018-02-17T11:18:18.646Z,11.09
2018-02-17T11:19:18.648Z,11.21
2018-02-17T11:20:18.651Z,11.16
2018-02-17T11:21:18.646Z,11.54
2018-02-17T11:22:18.644Z,11.39
2018-02-17T11:23:18.643Z,11.46
2018-02-17T11:24:18.641Z,11.02
2018-02-17T11:25:18.640Z,10.22
2018-02-17T11:26:18.639Z,10.20
2018-02-17T11:27:18.632Z,10.09
2018-02-17T11:28:18.630Z,9.65
2018-02-17T11:29:18.629Z,9.65
2018-02-17T11:30:18.627Z,9.53
2018-02-17T11:31:18.624Z,9.37
2018-02-17T11:32:18.625Z,9.41
2018-02-17T11:33:18.621Z,8.83
2018-02-17T11:34:18.618Z,8.93
2018-02-17T11:35:18.619Z,9.03
2018-02-17T11:36:18.617Z,9.13
2018-02-17T11:37:18.613Z,9.35
2018-02-17T11:38:18.613Z,9.15
2018-02-17T11:39:18.608Z,9.03
2018-02-17T11:40:18.605Z,9.17
2018-02-17T11:41:18.603Z,9.53
2018-02-17T11:42:18.599Z,9.62
2018-02-17T11:43:18.590Z,10.09
2018-02-17T11:44:18.588Z,10.02
2018-02-17T11:45:18.585Z,9.67
2018-02-17T11:46:18.582Z,9.13
2018-02-17T11:47:18.577Z,8.71
2018-02-17T11:48:18.575Z,8.55
2018-02-17T11:49:18.573Z,8.49
2018-02-17T11:50:18.570Z,8.46
2018-02-17T11:51:18.568Z,8.45
2018-02-17T11:52:18.564Z,8.27
2018-02-17T11:53:18.562Z,8.39
2018-02-17T11:54:18.556Z,8.25
2018-02-17T11:55:18.553Z,8.28
2018-02-17T11:56:18.547Z,8.50
2018-02-17T11:57:18.545Z,8.55
2018-02-17T11:58:18.544Z,8.65
2018-02-17T11:59:18.531Z,8.32
2018-02-17T12:00:18.524Z,8.36
2018-02-17T12:01:18.518Z,8.54
2018-02-17T12:02:18.513Z,8.58
2018-02-17T12:03:18.512Z,8.50
2018-02-17T12:04:18.509Z,8.43
2018-02-17T12:05:18.502Z,8.43
2018-02-17T12:06:18.497Z,8.54
2018-02-17T12:07:18.489Z,8.61
2018-02-17T12:08:18.482Z,8.43
2018-02-17T12:09:18.477Z,8.71
2018-02-17T12:10:18.472Z,8.46
2018-02-17T12:11:18.466Z,8.71
2018-02-17T12:12:18.462Z,8.70
2018-02-17T12:13:18.456Z,8.82
2018-02-17T12:14:18.449Z,9.01
2018-02-17T12:15:18.450Z,9.34
2018-02-17T12:16:18.444Z,9.42
2018-02-17T12:17:18.439Z,9.50
2018-02-17T12:18:18.434Z,9.50
2018-02-17T12:19:18.427Z,9.67
2018-02-17T12:20:18.423Z,9.74
2018-02-17T12:21:18.417Z,9.74
2018-02-17T12:22:18.412Z,9.86
2018-02-17T12:23:18.402Z,9.93
2018-02-17T12:24:18.397Z,9.92
2018-02-17T12:25:18.392Z,10.10
2018-02-17T12:26:18.387Z,10.09
2018-02-17T12:27:18.381Z,10.17
2018-02-17T12:28:18.377Z,10.11
2018-02-17T12:29:18.372Z,10.10
2018-02-17T12:30:18.367Z,10.09
2018-02-17T12:31:18.365Z,9.88
2018-02-17T12:32:18.363Z,9.77
2018-02-17T12:33:18.355Z,9.70
2018-02-17T12:34:18.353Z,9.65
2018-02-17T12:35:18.345Z,9.42
2018-02-17T12:36:18.339Z,9.30
2018-02-17T12:37:18.336Z,8.88
2018-02-17T12:38:18.331Z,8.61
2018-02-17T12:39:18.321Z,8.75
2018-02-17T12:40:18.315Z,8.94
2018-02-17T12:41:18.312Z,9.01
2018-02-17T12:42:18.306Z,8.97
2018-02-17T12:43:18.300Z,9.13
2018-02-17T12:44:18.295Z,9.19
2018-02-17T12:45:18.290Z,9.30
2018-02-17T12:46:18.285Z,9.44
2018-02-17T12:47:18.283Z,9.41
2018-02-17T12:48:18.278Z,9.35
2018-02-17T12:49:18.272Z,9.19
2018-02-17T12:50:18.267Z,9.08
2018-02-17T12:51:18.261Z,8.89
2018-02-17T12:52:18.254Z,8.76
2018-02-17T12:53:18.252Z,8.67
2018-02-17T12:54:18.254Z,8.54
2018-02-17T12:55:18.234Z,8.52
2018-02-17T12:56:18.229Z,8.43
2018-02-17T12:57:18.223Z,8.60
2018-02-17T12:58:18.216Z,8.70
2018-02-17T12:59:18.210Z,8.57
2018-02-17T13:00:18.205Z,8.50
2018-02-17T13:01:18.200Z,8.57
2018-02-17T13:02:18.196Z,8.70
2018-02-17T13:03:18.190Z,8.64
2018-02-17T13:04:18.184Z,8.82
2018-02-17T13:05:18.182Z,8.82
2018-02-17T13:06:18.173Z,8.94
2018-02-17T13:07:18.162Z,9.04
2018-02-17T13:08:18.155Z,9.22
2018-02-17T13:09:18.150Z,9.15
2018-02-17T13:10:18.144Z,8.86
2018-02-17T13:11:18.141Z,8.94
2018-02-17T13:12:18.134Z,8.88
2018-02-17T13:13:18.129Z,9.00
2018-02-17T13:14:18.123Z,9.00
2018-02-17T13:15:18.123Z,9.03
2018-02-17T13:16:18.110Z,9.20
2018-02-17T13:17:18.104Z,8.88